sensor_id;sensor_type;location;lat;lon;timestamp;P1;durP1;ratioP1;P2;durP2;ratioP2
37201;SDS011;37799;52.390;6.136;2023-11-21T00:02:10;14.63;;;5.57;;
37201;SDS011;37799;52.390;6.136;2023-11-21T00:04:35;16.75;;;4.72;;
37201;SDS011;37799;52.390;6.136;2023-11-21T00:07:00;15.80;;;5.72;;
37201;SDS011;37799;52.390;6.136;2023-11-21T00:09:25;17.50;;;5.57;;
37201;SDS011;37799;52.390;6.136;2023-11-21T00:11:51;15.32;;;4.78;;
37201;SDS011;37799;52.390;6.136;2023-11-21T00:14:16;15.60;;;4.88;;
37201;SDS011;37799;52.390;6.136;2023-11-21T00:16:41;16.92;;;5.57;;
37201;SDS011;37799;52.390;6.136;2023-11-21T00:19:07;15.52;;;4.95;;
37201;SDS011;37799;52.390;6.136;2023-11-21T00:21:32;17.42;;;5.20;;
37201;SDS011;37799;52.390;6.136;2023-11-21T00:23:57;17.25;;;5.50;;
37201;SDS011;37799;52.390;6.136;2023-11-21T00:26:23;16.55;;;4.78;;
37201;SDS011;37799;52.390;6.136;2023-11-21T00:28:49;17.80;;;5.70;;
37201;SDS011;37799;52.390;6.136;2023-11-21T00:31:15;14.90;;;5.22;;
37201;SDS011;37799;52.390;6.136;2023-11-21T00:33:40;16.38;;;5.75;;
37201;SDS011;37799;52.390;6.136;2023-11-21T00:36:06;18.20;;;6.00;;
37201;SDS011;37799;52.390;6.136;2023-11-21T00:38:34;16.95;;;6.10;;
37201;SDS011;37799;52.390;6.136;2023-11-21T00:41:04;17.42;;;5.70;;
37201;SDS011;37799;52.390;6.136;2023-11-21T00:43:30;22.80;;;6.18;;
37201;SDS011;37799;52.390;6.136;2023-11-21T00:45:55;16.05;;;5.35;;
37201;SDS011;37799;52.390;6.136;2023-11-21T00:48:21;18.05;;;5.85;;
37201;SDS011;37799;52.390;6.136;2023-11-21T00:50:46;18.00;;;5.70;;
37201;SDS011;37799;52.390;6.136;2023-11-21T00:53:11;15.60;;;5.70;;
37201;SDS011;37799;52.390;6.136;2023-11-21T00:55:37;16.40;;;5.63;;
37201;SDS011;37799;52.390;6.136;2023-11-21T00:58:05;18.65;;;6.65;;
37201;SDS011;37799;52.390;6.136;2023-11-21T01:00:31;15.30;;;5.65;;
37201;SDS011;37799;52.390;6.136;2023-11-21T01:02:57;13.82;;;5.03;;
37201;SDS011;37799;52.390;6.136;2023-11-21T01:05:23;19.25;;;6.05;;
37201;SDS011;37799;52.390;6.136;2023-11-21T01:07:48;15.65;;;5.13;;
37201;SDS011;37799;52.390;6.136;2023-11-21T01:10:13;17.95;;;6.43;;
37201;SDS011;37799;52.390;6.136;2023-11-21T01:12:39;17.92;;;5.65;;
37201;SDS011;37799;52.390;6.136;2023-11-21T01:15:04;18.35;;;6.05;;
37201;SDS011;37799;52.390;6.136;2023-11-21T01:17:33;20.80;;;6.55;;
37201;SDS011;37799;52.390;6.136;2023-11-21T01:19:59;16.55;;;5.93;;
37201;SDS011;37799;52.390;6.136;2023-11-21T01:22:25;18.48;;;6.00;;
37201;SDS011;37799;52.390;6.136;2023-11-21T01:24:54;18.92;;;6.78;;
37201;SDS011;37799;52.390;6.136;2023-11-21T01:27:19;15.10;;;5.30;;
37201;SDS011;37799;52.390;6.136;2023-11-21T01:29:44;17.10;;;5.95;;
37201;SDS011;37799;52.390;6.136;2023-11-21T01:32:10;17.40;;;6.35;;
37201;SDS011;37799;52.390;6.136;2023-11-21T01:34:35;18.98;;;5.65;;
37201;SDS011;37799;52.390;6.136;2023-11-21T01:37:01;19.13;;;6.13;;
37201;SDS011;37799;52.390;6.136;2023-11-21T01:39:29;18.40;;;6.22;;
37201;SDS011;37799;52.390;6.136;2023-11-21T01:41:55;16.40;;;5.53;;
37201;SDS011;37799;52.390;6.136;2023-11-21T01:44:20;17.00;;;5.43;;
37201;SDS011;37799;52.390;6.136;2023-11-21T01:46:45;15.57;;;5.97;;
37201;SDS011;37799;52.390;6.136;2023-11-21T01:49:14;18.17;;;5.70;;
37201;SDS011;37799;52.390;6.136;2023-11-21T01:51:41;19.35;;;5.75;;
37201;SDS011;37799;52.390;6.136;2023-11-21T01:54:08;15.60;;;5.57;;
37201;SDS011;37799;52.390;6.136;2023-11-21T01:56:34;18.17;;;5.43;;
37201;SDS011;37799;52.390;6.136;2023-11-21T01:58:59;18.45;;;5.90;;
37201;SDS011;37799;52.390;6.136;2023-11-21T02:01:25;16.48;;;6.00;;
37201;SDS011;37799;52.390;6.136;2023-11-21T02:03:51;17.92;;;6.15;;
37201;SDS011;37799;52.390;6.136;2023-11-21T02:06:17;17.60;;;6.22;;
37201;SDS011;37799;52.390;6.136;2023-11-21T02:08:43;15.82;;;5.35;;
37201;SDS011;37799;52.390;6.136;2023-11-21T02:11:09;18.77;;;5.30;;
37201;SDS011;37799;52.390;6.136;2023-11-21T02:13:37;17.48;;;5.10;;
37201;SDS011;37799;52.390;6.136;2023-11-21T02:16:03;17.70;;;6.18;;
37201;SDS011;37799;52.390;6.136;2023-11-21T02:18:30;18.48;;;5.30;;
37201;SDS011;37799;52.390;6.136;2023-11-21T02:20:55;18.75;;;5.70;;
37201;SDS011;37799;52.390;6.136;2023-11-21T02:23:21;15.02;;;4.97;;
37201;SDS011;37799;52.390;6.136;2023-11-21T02:25:48;14.55;;;4.90;;
37201;SDS011;37799;52.390;6.136;2023-11-21T02:28:13;18.20;;;5.47;;
37201;SDS011;37799;52.390;6.136;2023-11-21T02:30:41;16.60;;;5.60;;
37201;SDS011;37799;52.390;6.136;2023-11-21T02:33:07;18.42;;;5.68;;
37201;SDS011;37799;52.390;6.136;2023-11-21T02:35:32;18.52;;;5.57;;
37201;SDS011;37799;52.390;6.136;2023-11-21T02:37:58;17.88;;;5.95;;
37201;SDS011;37799;52.390;6.136;2023-11-21T02:40:23;17.58;;;6.20;;
37201;SDS011;37799;52.390;6.136;2023-11-21T02:42:50;16.52;;;4.80;;
37201;SDS011;37799;52.390;6.136;2023-11-21T02:45:19;17.70;;;5.28;;
37201;SDS011;37799;52.390;6.136;2023-11-21T02:47:49;20.45;;;5.28;;
37201;SDS011;37799;52.390;6.136;2023-11-21T02:50:14;16.98;;;5.75;;
37201;SDS011;37799;52.390;6.136;2023-11-21T02:52:40;17.65;;;5.45;;
37201;SDS011;37799;52.390;6.136;2023-11-21T02:55:05;19.67;;;6.05;;
37201;SDS011;37799;52.390;6.136;2023-11-21T02:57:32;20.23;;;6.03;;
37201;SDS011;37799;52.390;6.136;2023-11-21T02:59:58;19.23;;;5.35;;
37201;SDS011;37799;52.390;6.136;2023-11-21T03:02:24;15.88;;;5.38;;
37201;SDS011;37799;52.390;6.136;2023-11-21T03:04:50;15.57;;;5.85;;
37201;SDS011;37799;52.390;6.136;2023-11-21T03:07:15;15.95;;;5.72;;
37201;SDS011;37799;52.390;6.136;2023-11-21T03:09:41;15.32;;;5.03;;
37201;SDS011;37799;52.390;6.136;2023-11-21T03:12:07;21.50;;;5.72;;
37201;SDS011;37799;52.390;6.136;2023-11-21T03:14:33;16.02;;;5.10;;
37201;SDS011;37799;52.390;6.136;2023-11-21T03:16:59;15.95;;;5.22;;
37201;SDS011;37799;52.390;6.136;2023-11-21T03:19:24;17.13;;;5.65;;
37201;SDS011;37799;52.390;6.136;2023-11-21T03:21:49;15.52;;;5.00;;
37201;SDS011;37799;52.390;6.136;2023-11-21T03:24:15;15.63;;;5.05;;
37201;SDS011;37799;52.390;6.136;2023-11-21T03:26:45;19.02;;;4.93;;
37201;SDS011;37799;52.390;6.136;2023-11-21T03:29:11;13.63;;;5.22;;
37201;SDS011;37799;52.390;6.136;2023-11-21T03:31:37;18.00;;;5.82;;
37201;SDS011;37799;52.390;6.136;2023-11-21T03:34:02;15.88;;;4.75;;
37201;SDS011;37799;52.390;6.136;2023-11-21T03:36:28;15.93;;;4.43;;
37201;SDS011;37799;52.390;6.136;2023-11-21T03:38:53;15.52;;;4.80;;
37201;SDS011;37799;52.390;6.136;2023-11-21T03:41:19;15.15;;;4.65;;
37201;SDS011;37799;52.390;6.136;2023-11-21T03:43:45;14.85;;;5.22;;
37201;SDS011;37799;52.390;6.136;2023-11-21T03:46:10;14.68;;;5.13;;
37201;SDS011;37799;52.390;6.136;2023-11-21T03:48:35;13.77;;;4.55;;
37201;SDS011;37799;52.390;6.136;2023-11-21T03:51:00;15.93;;;4.78;;
37201;SDS011;37799;52.390;6.136;2023-11-21T03:53:26;18.00;;;5.07;;
37201;SDS011;37799;52.390;6.136;2023-11-21T03:55:51;17.15;;;5.03;;
37201;SDS011;37799;52.390;6.136;2023-11-21T03:58:16;14.65;;;5.53;;
37201;SDS011;37799;52.390;6.136;2023-11-21T04:00:42;17.42;;;5.03;;
37201;SDS011;37799;52.390;6.136;2023-11-21T04:03:07;15.43;;;4.93;;
37201;SDS011;37799;52.390;6.136;2023-11-21T04:05:32;14.57;;;5.13;;
37201;SDS011;37799;52.390;6.136;2023-11-21T04:07:57;14.00;;;4.45;;
37201;SDS011;37799;52.390;6.136;2023-11-21T04:10:23;14.40;;;4.65;;
37201;SDS011;37799;52.390;6.136;2023-11-21T04:12:48;18.33;;;5.22;;
37201;SDS011;37799;52.390;6.136;2023-11-21T04:15:13;17.98;;;5.82;;
37201;SDS011;37799;52.390;6.136;2023-11-21T04:17:39;14.55;;;4.57;;
37201;SDS011;37799;52.390;6.136;2023-11-21T04:20:05;16.52;;;4.88;;
37201;SDS011;37799;52.390;6.136;2023-11-21T04:22:34;13.10;;;4.00;;
37201;SDS011;37799;52.390;6.136;2023-11-21T04:25:01;13.45;;;4.65;;
37201;SDS011;37799;52.390;6.136;2023-11-21T04:27:27;13.23;;;4.38;;
37201;SDS011;37799;52.390;6.136;2023-11-21T04:29:52;16.40;;;4.45;;
37201;SDS011;37799;52.390;6.136;2023-11-21T04:32:18;11.38;;;3.97;;
37201;SDS011;37799;52.390;6.136;2023-11-21T04:34:43;13.65;;;4.25;;
37201;SDS011;37799;52.390;6.136;2023-11-21T04:37:08;14.25;;;4.05;;
37201;SDS011;37799;52.390;6.136;2023-11-21T04:39:35;12.55;;;4.18;;
37201;SDS011;37799;52.390;6.136;2023-11-21T04:42:00;16.48;;;4.45;;
37201;SDS011;37799;52.390;6.136;2023-11-21T04:44:26;17.58;;;4.53;;
37201;SDS011;37799;52.390;6.136;2023-11-21T04:46:51;11.88;;;3.75;;
37201;SDS011;37799;52.390;6.136;2023-11-21T04:49:16;14.05;;;4.10;;
37201;SDS011;37799;52.390;6.136;2023-11-21T04:51:42;12.55;;;4.47;;
37201;SDS011;37799;52.390;6.136;2023-11-21T04:54:07;16.98;;;4.68;;
37201;SDS011;37799;52.390;6.136;2023-11-21T04:56:32;15.70;;;4.85;;
37201;SDS011;37799;52.390;6.136;2023-11-21T04:58:57;11.77;;;4.50;;
37201;SDS011;37799;52.390;6.136;2023-11-21T05:01:23;16.05;;;4.97;;
37201;SDS011;37799;52.390;6.136;2023-11-21T05:03:48;14.32;;;4.40;;
37201;SDS011;37799;52.390;6.136;2023-11-21T05:06:14;14.15;;;4.95;;
37201;SDS011;37799;52.390;6.136;2023-11-21T05:08:39;13.10;;;4.70;;
37201;SDS011;37799;52.390;6.136;2023-11-21T05:11:04;13.35;;;4.57;;
37201;SDS011;37799;52.390;6.136;2023-11-21T05:13:32;14.23;;;4.38;;
37201;SDS011;37799;52.390;6.136;2023-11-21T05:15:59;15.18;;;4.13;;
37201;SDS011;37799;52.390;6.136;2023-11-21T05:18:24;14.93;;;4.65;;
37201;SDS011;37799;52.390;6.136;2023-11-21T05:20:52;12.70;;;4.32;;
37201;SDS011;37799;52.390;6.136;2023-11-21T05:23:18;14.95;;;4.60;;
37201;SDS011;37799;52.390;6.136;2023-11-21T05:25:44;18.13;;;5.03;;
37201;SDS011;37799;52.390;6.136;2023-11-21T05:28:09;15.52;;;4.60;;
37201;SDS011;37799;52.390;6.136;2023-11-21T05:30:34;14.02;;;4.38;;
37201;SDS011;37799;52.390;6.136;2023-11-21T05:32:59;13.80;;;4.75;;
37201;SDS011;37799;52.390;6.136;2023-11-21T05:35:25;15.00;;;4.75;;
37201;SDS011;37799;52.390;6.136;2023-11-21T05:37:51;15.07;;;4.72;;
37201;SDS011;37799;52.390;6.136;2023-11-21T05:40:16;14.07;;;4.30;;
37201;SDS011;37799;52.390;6.136;2023-11-21T05:42:42;14.85;;;4.75;;
37201;SDS011;37799;52.390;6.136;2023-11-21T05:45:08;12.85;;;4.63;;
37201;SDS011;37799;52.390;6.136;2023-11-21T05:47:40;13.07;;;4.78;;
37201;SDS011;37799;52.390;6.136;2023-11-21T05:50:07;17.17;;;4.93;;
37201;SDS011;37799;52.390;6.136;2023-11-21T05:52:37;15.88;;;5.13;;
37201;SDS011;37799;52.390;6.136;2023-11-21T05:55:04;13.77;;;4.75;;
37201;SDS011;37799;52.390;6.136;2023-11-21T05:57:32;16.58;;;5.50;;
37201;SDS011;37799;52.390;6.136;2023-11-21T05:59:59;17.42;;;5.32;;
37201;SDS011;37799;52.390;6.136;2023-11-21T06:02:24;16.42;;;4.68;;
37201;SDS011;37799;52.390;6.136;2023-11-21T06:04:50;13.00;;;4.88;;
37201;SDS011;37799;52.390;6.136;2023-11-21T06:07:16;14.02;;;5.10;;
37201;SDS011;37799;52.390;6.136;2023-11-21T06:09:41;20.15;;;5.35;;
37201;SDS011;37799;52.390;6.136;2023-11-21T06:12:07;16.17;;;4.85;;
37201;SDS011;37799;52.390;6.136;2023-11-21T06:14:32;15.02;;;4.53;;
37201;SDS011;37799;52.390;6.136;2023-11-21T06:17:00;17.67;;;5.05;;
37201;SDS011;37799;52.390;6.136;2023-11-21T06:19:25;18.92;;;5.75;;
37201;SDS011;37799;52.390;6.136;2023-11-21T06:21:51;20.80;;;5.45;;
37201;SDS011;37799;52.390;6.136;2023-11-21T06:24:16;16.75;;;5.60;;
37201;SDS011;37799;52.390;6.136;2023-11-21T06:26:41;15.38;;;5.57;;
37201;SDS011;37799;52.390;6.136;2023-11-21T06:29:07;17.13;;;4.90;;
37201;SDS011;37799;52.390;6.136;2023-11-21T06:31:32;15.38;;;5.35;;
37201;SDS011;37799;52.390;6.136;2023-11-21T06:33:58;17.35;;;5.57;;
37201;SDS011;37799;52.390;6.136;2023-11-21T06:36:24;14.20;;;5.53;;
37201;SDS011;37799;52.390;6.136;2023-11-21T06:38:51;12.32;;;4.40;;
37201;SDS011;37799;52.390;6.136;2023-11-21T06:41:16;14.10;;;4.65;;
37201;SDS011;37799;52.390;6.136;2023-11-21T06:43:42;14.23;;;5.05;;
37201;SDS011;37799;52.390;6.136;2023-11-21T06:46:11;15.10;;;4.60;;
37201;SDS011;37799;52.390;6.136;2023-11-21T06:48:36;13.85;;;5.00;;
37201;SDS011;37799;52.390;6.136;2023-11-21T06:51:03;13.85;;;4.85;;
37201;SDS011;37799;52.390;6.136;2023-11-21T06:53:29;15.20;;;4.80;;
37201;SDS011;37799;52.390;6.136;2023-11-21T06:55:54;17.23;;;5.03;;
37201;SDS011;37799;52.390;6.136;2023-11-21T06:58:20;13.50;;;5.18;;
37201;SDS011;37799;52.390;6.136;2023-11-21T07:00:45;16.92;;;5.03;;
37201;SDS011;37799;52.390;6.136;2023-11-21T07:03:13;13.02;;;5.05;;
37201;SDS011;37799;52.390;6.136;2023-11-21T07:05:38;14.00;;;4.85;;
37201;SDS011;37799;52.390;6.136;2023-11-21T07:08:04;13.75;;;4.97;;
37201;SDS011;37799;52.390;6.136;2023-11-21T07:10:29;14.77;;;5.40;;
37201;SDS011;37799;52.390;6.136;2023-11-21T07:12:54;16.65;;;4.90;;
37201;SDS011;37799;52.390;6.136;2023-11-21T07:15:22;16.85;;;5.05;;
37201;SDS011;37799;52.390;6.136;2023-11-21T07:17:47;15.95;;;4.85;;
37201;SDS011;37799;52.390;6.136;2023-11-21T07:20:13;15.15;;;4.82;;
37201;SDS011;37799;52.390;6.136;2023-11-21T07:22:38;14.95;;;4.72;;
37201;SDS011;37799;52.390;6.136;2023-11-21T07:25:04;14.10;;;5.00;;
37201;SDS011;37799;52.390;6.136;2023-11-21T07:27:30;14.68;;;4.85;;
37201;SDS011;37799;52.390;6.136;2023-11-21T07:29:55;16.58;;;5.55;;
37201;SDS011;37799;52.390;6.136;2023-11-21T07:32:20;16.65;;;5.43;;
37201;SDS011;37799;52.390;6.136;2023-11-21T07:34:45;19.95;;;5.22;;
37201;SDS011;37799;52.390;6.136;2023-11-21T07:37:11;17.67;;;5.55;;
37201;SDS011;37799;52.390;6.136;2023-11-21T07:39:36;16.13;;;5.18;;
37201;SDS011;37799;52.390;6.136;2023-11-21T07:42:02;18.67;;;5.25;;
37201;SDS011;37799;52.390;6.136;2023-11-21T07:44:27;15.43;;;5.28;;
37201;SDS011;37799;52.390;6.136;2023-11-21T07:46:53;16.58;;;5.50;;
37201;SDS011;37799;52.390;6.136;2023-11-21T07:49:22;17.33;;;5.25;;
37201;SDS011;37799;52.390;6.136;2023-11-21T07:51:48;15.10;;;5.72;;
37201;SDS011;37799;52.390;6.136;2023-11-21T07:54:13;18.77;;;6.05;;
37201;SDS011;37799;52.390;6.136;2023-11-21T07:56:38;16.52;;;5.18;;
37201;SDS011;37799;52.390;6.136;2023-11-21T07:59:04;17.65;;;5.28;;
37201;SDS011;37799;52.390;6.136;2023-11-21T08:01:29;16.33;;;6.13;;
37201;SDS011;37799;52.390;6.136;2023-11-21T08:03:54;17.77;;;5.80;;
37201;SDS011;37799;52.390;6.136;2023-11-21T08:06:22;17.77;;;5.97;;
37201;SDS011;37799;52.390;6.136;2023-11-21T08:08:49;19.13;;;6.30;;
37201;SDS011;37799;52.390;6.136;2023-11-21T08:11:14;18.23;;;5.40;;
37201;SDS011;37799;52.390;6.136;2023-11-21T08:13:39;20.08;;;5.65;;
37201;SDS011;37799;52.390;6.136;2023-11-21T08:16:05;17.88;;;5.97;;
37201;SDS011;37799;52.390;6.136;2023-11-21T08:18:32;20.88;;;5.78;;
37201;SDS011;37799;52.390;6.136;2023-11-21T08:20:57;19.42;;;6.15;;
37201;SDS011;37799;52.390;6.136;2023-11-21T08:23:23;16.15;;;5.05;;
37201;SDS011;37799;52.390;6.136;2023-11-21T08:25:51;19.17;;;5.88;;
37201;SDS011;37799;52.390;6.136;2023-11-21T08:28:18;18.85;;;6.28;;
37201;SDS011;37799;52.390;6.136;2023-11-21T08:30:43;18.75;;;5.68;;
37201;SDS011;37799;52.390;6.136;2023-11-21T08:33:09;16.00;;;5.47;;
37201;SDS011;37799;52.390;6.136;2023-11-21T08:35:36;18.67;;;6.38;;
37201;SDS011;37799;52.390;6.136;2023-11-21T08:38:02;17.05;;;5.50;;
37201;SDS011;37799;52.390;6.136;2023-11-21T08:40:27;19.95;;;5.78;;
37201;SDS011;37799;52.390;6.136;2023-11-21T08:42:53;16.15;;;5.05;;
37201;SDS011;37799;52.390;6.136;2023-11-21T08:45:19;15.50;;;4.70;;
37201;SDS011;37799;52.390;6.136;2023-11-21T08:47:46;19.00;;;5.20;;
37201;SDS011;37799;52.390;6.136;2023-11-21T08:50:12;17.77;;;6.10;;
37201;SDS011;37799;52.390;6.136;2023-11-21T08:52:38;18.65;;;5.43;;
37201;SDS011;37799;52.390;6.136;2023-11-21T08:55:04;17.92;;;4.35;;
37201;SDS011;37799;52.390;6.136;2023-11-21T08:57:35;13.82;;;4.55;;
37201;SDS011;37799;52.390;6.136;2023-11-21T09:00:02;16.42;;;4.20;;
37201;SDS011;37799;52.390;6.136;2023-11-21T09:02:31;12.60;;;4.38;;
37201;SDS011;37799;52.390;6.136;2023-11-21T09:04:56;12.15;;;3.80;;
37201;SDS011;37799;52.390;6.136;2023-11-21T09:07:22;14.90;;;5.25;;
37201;SDS011;37799;52.390;6.136;2023-11-21T09:09:47;11.60;;;4.10;;
37201;SDS011;37799;52.390;6.136;2023-11-21T09:12:13;11.05;;;3.58;;
37201;SDS011;37799;52.390;6.136;2023-11-21T09:14:39;11.75;;;4.18;;
37201;SDS011;37799;52.390;6.136;2023-11-21T09:17:05;11.52;;;3.80;;
37201;SDS011;37799;52.390;6.136;2023-11-21T09:19:36;12.20;;;4.43;;
37201;SDS011;37799;52.390;6.136;2023-11-21T09:22:02;13.18;;;3.95;;
37201;SDS011;37799;52.390;6.136;2023-11-21T09:24:27;10.68;;;4.00;;
37201;SDS011;37799;52.390;6.136;2023-11-21T09:26:52;13.13;;;4.28;;
37201;SDS011;37799;52.390;6.136;2023-11-21T09:29:17;14.88;;;4.32;;
37201;SDS011;37799;52.390;6.136;2023-11-21T09:31:43;11.57;;;4.43;;
37201;SDS011;37799;52.390;6.136;2023-11-21T09:34:09;11.90;;;3.92;;
37201;SDS011;37799;52.390;6.136;2023-11-21T09:36:35;12.82;;;4.10;;
37201;SDS011;37799;52.390;6.136;2023-11-21T09:39:04;12.13;;;3.90;;
37201;SDS011;37799;52.390;6.136;2023-11-21T09:41:50;15.27;;;4.97;;
37201;SDS011;37799;52.390;6.136;2023-11-21T09:47:00;14.75;;;4.05;;
37201;SDS011;37799;52.390;6.136;2023-11-21T09:49:27;13.55;;;4.22;;
37201;SDS011;37799;52.390;6.136;2023-11-21T09:51:54;13.38;;;4.40;;
37201;SDS011;37799;52.390;6.136;2023-11-21T09:54:23;12.70;;;3.88;;
37201;SDS011;37799;52.390;6.136;2023-11-21T09:56:48;14.45;;;4.47;;
37201;SDS011;37799;52.390;6.136;2023-11-21T09:59:15;12.60;;;4.18;;
37201;SDS011;37799;52.390;6.136;2023-11-21T10:01:41;12.43;;;4.22;;
37201;SDS011;37799;52.390;6.136;2023-11-21T10:04:07;11.55;;;4.18;;
37201;SDS011;37799;52.390;6.136;2023-11-21T10:06:36;14.00;;;4.22;;
37201;SDS011;37799;52.390;6.136;2023-11-21T10:09:03;17.73;;;4.78;;
37201;SDS011;37799;52.390;6.136;2023-11-21T10:11:36;15.18;;;4.85;;
37201;SDS011;37799;52.390;6.136;2023-11-21T10:14:04;16.83;;;4.75;;
37201;SDS011;37799;52.390;6.136;2023-11-21T10:16:30;15.68;;;4.60;;
37201;SDS011;37799;52.390;6.136;2023-11-21T10:18:57;14.80;;;5.03;;
37201;SDS011;37799;52.390;6.136;2023-11-21T10:21:23;14.55;;;4.70;;
37201;SDS011;37799;52.390;6.136;2023-11-21T10:23:49;14.32;;;5.32;;
37201;SDS011;37799;52.390;6.136;2023-11-21T10:26:18;14.15;;;5.05;;
37201;SDS011;37799;52.390;6.136;2023-11-21T10:28:55;15.68;;;4.72;;
37201;SDS011;37799;52.390;6.136;2023-11-21T10:31:22;16.15;;;5.22;;
37201;SDS011;37799;52.390;6.136;2023-11-21T10:33:49;14.07;;;4.68;;
37201;SDS011;37799;52.390;6.136;2023-11-21T10:36:24;14.15;;;4.60;;
37201;SDS011;37799;52.390;6.136;2023-11-21T10:38:50;14.38;;;5.35;;
37201;SDS011;37799;52.390;6.136;2023-11-21T10:41:18;16.58;;;4.78;;
37201;SDS011;37799;52.390;6.136;2023-11-21T10:43:44;15.20;;;5.13;;
37201;SDS011;37799;52.390;6.136;2023-11-21T10:46:09;17.20;;;5.25;;
37201;SDS011;37799;52.390;6.136;2023-11-21T10:48:35;15.35;;;5.03;;
37201;SDS011;37799;52.390;6.136;2023-11-21T10:51:01;13.70;;;4.88;;
37201;SDS011;37799;52.390;6.136;2023-11-21T10:53:32;13.40;;;4.70;;
37201;SDS011;37799;52.390;6.136;2023-11-21T10:56:02;16.80;;;5.80;;
37201;SDS011;37799;52.390;6.136;2023-11-21T10:58:31;14.50;;;4.90;;
37201;SDS011;37799;52.390;6.136;2023-11-21T11:00:58;13.38;;;4.70;;
37201;SDS011;37799;52.390;6.136;2023-11-21T11:03:24;16.67;;;5.32;;
37201;SDS011;37799;52.390;6.136;2023-11-21T11:05:50;16.13;;;5.63;;
37201;SDS011;37799;52.390;6.136;2023-11-21T11:08:18;15.52;;;5.03;;
37201;SDS011;37799;52.390;6.136;2023-11-21T11:10:45;13.48;;;5.13;;
37201;SDS011;37799;52.390;6.136;2023-11-21T11:13:12;14.43;;;5.47;;
37201;SDS011;37799;52.390;6.136;2023-11-21T11:15:40;12.20;;;4.32;;
37201;SDS011;37799;52.390;6.136;2023-11-21T11:18:05;16.85;;;4.93;;
37201;SDS011;37799;52.390;6.136;2023-11-21T11:20:34;16.48;;;5.68;;
37201;SDS011;37799;52.390;6.136;2023-11-21T11:23:11;17.98;;;5.63;;
37201;SDS011;37799;52.390;6.136;2023-11-21T11:34:10;13.93;;;5.35;;
37201;SDS011;37799;52.390;6.136;2023-11-21T11:36:58;14.93;;;5.05;;
37201;SDS011;37799;52.390;6.136;2023-11-21T11:39:31;15.98;;;5.38;;
37201;SDS011;37799;52.390;6.136;2023-11-21T11:42:03;13.23;;;4.68;;
37201;SDS011;37799;52.390;6.136;2023-11-21T11:47:16;10.18;;;2.97;;
37201;SDS011;37799;52.390;6.136;2023-11-21T11:49:57;9.40;;;2.83;;
37201;SDS011;37799;52.390;6.136;2023-11-21T11:52:32;11.40;;;2.92;;
37201;SDS011;37799;52.390;6.136;2023-11-21T11:55:03;14.18;;;3.15;;
37201;SDS011;37799;52.390;6.136;2023-11-21T11:57:30;12.48;;;3.10;;
37201;SDS011;37799;52.390;6.136;2023-11-21T12:02:43;11.27;;;3.22;;
37201;SDS011;37799;52.390;6.136;2023-11-21T12:05:11;13.65;;;3.65;;
37201;SDS011;37799;52.390;6.136;2023-11-21T12:07:44;13.20;;;3.58;;
37201;SDS011;37799;52.390;6.136;2023-11-21T12:10:16;15.55;;;3.35;;
37201;SDS011;37799;52.390;6.136;2023-11-21T12:12:45;11.27;;;3.42;;
37201;SDS011;37799;52.390;6.136;2023-11-21T12:15:11;13.70;;;4.22;;
37201;SDS011;37799;52.390;6.136;2023-11-21T12:17:38;15.90;;;4.10;;
37201;SDS011;37799;52.390;6.136;2023-11-21T12:20:04;13.98;;;3.70;;
37201;SDS011;37799;52.390;6.136;2023-11-21T12:22:31;16.17;;;5.35;;
37201;SDS011;37799;52.390;6.136;2023-11-21T12:24:56;13.02;;;3.90;;
37201;SDS011;37799;52.390;6.136;2023-11-21T12:27:22;14.63;;;4.10;;
37201;SDS011;37799;52.390;6.136;2023-11-21T12:29:47;13.15;;;4.35;;
37201;SDS011;37799;52.390;6.136;2023-11-21T12:32:12;16.85;;;4.47;;
37201;SDS011;37799;52.390;6.136;2023-11-21T12:34:40;19.33;;;5.18;;
37201;SDS011;37799;52.390;6.136;2023-11-21T12:37:05;18.52;;;5.45;;
37201;SDS011;37799;52.390;6.136;2023-11-21T12:39:31;16.80;;;5.35;;
37201;SDS011;37799;52.390;6.136;2023-11-21T12:41:56;16.90;;;5.22;;
37201;SDS011;37799;52.390;6.136;2023-11-21T12:44:22;14.50;;;4.78;;
37201;SDS011;37799;52.390;6.136;2023-11-21T12:46:49;18.70;;;5.00;;
37201;SDS011;37799;52.390;6.136;2023-11-21T12:49:15;17.67;;;4.63;;
37201;SDS011;37799;52.390;6.136;2023-11-21T12:51:44;16.83;;;5.30;;
37201;SDS011;37799;52.390;6.136;2023-11-21T12:54:11;15.38;;;4.45;;
37201;SDS011;37799;52.390;6.136;2023-11-21T12:56:38;15.00;;;4.63;;
37201;SDS011;37799;52.390;6.136;2023-11-21T12:59:04;14.43;;;4.43;;
37201;SDS011;37799;52.390;6.136;2023-11-21T13:01:29;15.73;;;4.55;;
37201;SDS011;37799;52.390;6.136;2023-11-21T13:03:59;14.45;;;3.97;;
37201;SDS011;37799;52.390;6.136;2023-11-21T13:06:25;14.73;;;4.88;;
37201;SDS011;37799;52.390;6.136;2023-11-21T13:08:51;15.27;;;3.67;;
37201;SDS011;37799;52.390;6.136;2023-11-21T13:11:17;15.85;;;4.55;;
37201;SDS011;37799;52.390;6.136;2023-11-21T13:13:43;18.10;;;4.90;;
37201;SDS011;37799;52.390;6.136;2023-11-21T13:16:09;14.20;;;5.07;;
37201;SDS011;37799;52.390;6.136;2023-11-21T13:18:34;15.82;;;4.70;;
37201;SDS011;37799;52.390;6.136;2023-11-21T13:21:07;13.18;;;4.10;;
37201;SDS011;37799;52.390;6.136;2023-11-21T13:23:40;12.85;;;3.80;;
37201;SDS011;37799;52.390;6.136;2023-11-21T13:26:07;14.95;;;4.20;;
37201;SDS011;37799;52.390;6.136;2023-11-21T13:28:33;12.60;;;4.35;;
37201;SDS011;37799;52.390;6.136;2023-11-21T13:31:00;13.50;;;4.40;;
37201;SDS011;37799;52.390;6.136;2023-11-21T13:33:35;16.90;;;4.95;;
37201;SDS011;37799;52.390;6.136;2023-11-21T13:36:03;14.68;;;4.38;;
37201;SDS011;37799;52.390;6.136;2023-11-21T13:38:32;14.63;;;4.88;;
37201;SDS011;37799;52.390;6.136;2023-11-21T13:40:59;12.70;;;4.10;;
37201;SDS011;37799;52.390;6.136;2023-11-21T13:43:25;11.68;;;3.60;;
37201;SDS011;37799;52.390;6.136;2023-11-21T13:45:51;15.32;;;3.72;;
37201;SDS011;37799;52.390;6.136;2023-11-21T13:48:28;10.20;;;3.22;;
37201;SDS011;37799;52.390;6.136;2023-11-21T13:51:02;10.10;;;3.47;;
37201;SDS011;37799;52.390;6.136;2023-11-21T13:53:38;9.48;;;3.30;;
37201;SDS011;37799;52.390;6.136;2023-11-21T13:56:03;11.18;;;3.65;;
37201;SDS011;37799;52.390;6.136;2023-11-21T13:58:29;10.68;;;3.88;;
37201;SDS011;37799;52.390;6.136;2023-11-21T14:01:09;9.27;;;3.30;;
37201;SDS011;37799;52.390;6.136;2023-11-21T14:03:57;10.07;;;3.63;;
37201;SDS011;37799;52.390;6.136;2023-11-21T14:06:45;11.45;;;4.05;;
37201;SDS011;37799;52.390;6.136;2023-11-21T14:09:15;9.60;;;3.55;;
37201;SDS011;37799;52.390;6.136;2023-11-21T14:11:51;10.88;;;3.75;;
37201;SDS011;37799;52.390;6.136;2023-11-21T14:14:17;9.77;;;3.13;;
37201;SDS011;37799;52.390;6.136;2023-11-21T14:16:43;10.40;;;3.17;;
37201;SDS011;37799;52.390;6.136;2023-11-21T14:19:09;9.18;;;3.00;;
37201;SDS011;37799;52.390;6.136;2023-11-21T14:21:40;9.35;;;2.72;;
37201;SDS011;37799;52.390;6.136;2023-11-21T14:24:09;10.82;;;3.70;;
37201;SDS011;37799;52.390;6.136;2023-11-21T14:26:37;10.05;;;3.47;;
37201;SDS011;37799;52.390;6.136;2023-11-21T14:29:03;9.50;;;3.08;;
37201;SDS011;37799;52.390;6.136;2023-11-21T14:31:29;9.45;;;2.75;;
37201;SDS011;37799;52.390;6.136;2023-11-21T14:33:57;9.27;;;3.20;;
37201;SDS011;37799;52.390;6.136;2023-11-21T14:36:22;7.72;;;2.70;;
37201;SDS011;37799;52.390;6.136;2023-11-21T14:38:49;9.07;;;3.08;;
37201;SDS011;37799;52.390;6.136;2023-11-21T14:41:14;10.00;;;3.33;;
37201;SDS011;37799;52.390;6.136;2023-11-21T14:43:39;9.82;;;2.90;;
37201;SDS011;37799;52.390;6.136;2023-11-21T14:46:06;10.45;;;3.08;;
37201;SDS011;37799;52.390;6.136;2023-11-21T14:48:35;10.23;;;3.50;;
37201;SDS011;37799;52.390;6.136;2023-11-21T14:51:12;9.48;;;3.53;;